sensor_id;sensor_type;location;lat;lon;timestamp;P1;durP1;ratioP1;P2;durP2;ratioP2
79677;SDS011;69145;45.544;10.214;2023-05-13T00:00:11;4.07;;;1.00;;
79677;SDS011;69145;45.544;10.214;2023-05-13T00:02:38;2.60;;;1.25;;
79677;SDS011;69145;45.544;10.214;2023-05-13T00:05:03;3.10;;;1.17;;
79677;SDS011;69145;45.544;10.214;2023-05-13T00:07:29;2.67;;;1.05;;
79677;SDS011;69145;45.544;10.214;2023-05-13T00:09:54;3.22;;;1.13;;
79677;SDS011;69145;45.544;10.214;2023-05-13T00:12:19;2.72;;;1.00;;
79677;SDS011;69145;45.544;10.214;2023-05-13T00:14:45;7.15;;;1.58;;
79677;SDS011;69145;45.544;10.214;2023-05-13T00:17:10;3.00;;;1.67;;
79677;SDS011;69145;45.544;10.214;2023-05-13T00:19:36;2.60;;;1.27;;
79677;SDS011;69145;45.544;10.214;2023-05-13T00:22:01;4.17;;;1.60;;
79677;SDS011;69145;45.544;10.214;2023-05-13T00:24:27;3.38;;;1.42;;
79677;SDS011;69145;45.544;10.214;2023-05-13T00:26:52;3.85;;;1.50;;
79677;SDS011;69145;45.544;10.214;2023-05-13T00:29:18;2.95;;;1.33;;
79677;SDS011;69145;45.544;10.214;2023-05-13T00:31:43;3.20;;;1.30;;
79677;SDS011;69145;45.544;10.214;2023-05-13T00:34:08;4.07;;;1.57;;
79677;SDS011;69145;45.544;10.214;2023-05-13T00:36:34;4.17;;;1.47;;
79677;SDS011;69145;45.544;10.214;2023-05-13T00:38:59;4.45;;;1.60;;
79677;SDS011;69145;45.544;10.214;2023-05-13T00:41:24;4.18;;;1.30;;
79677;SDS011;69145;45.544;10.214;2023-05-13T00:43:52;4.93;;;1.63;;
79677;SDS011;69145;45.544;10.214;2023-05-13T00:46:24;3.25;;;1.27;;
79677;SDS011;69145;45.544;10.214;2023-05-13T00:49:01;3.10;;;1.63;;
79677;SDS011;69145;45.544;10.214;2023-05-13T00:51:28;3.97;;;1.83;;
79677;SDS011;69145;45.544;10.214;2023-05-13T00:53:57;3.15;;;1.45;;
79677;SDS011;69145;45.544;10.214;2023-05-13T00:56:24;3.10;;;1.75;;
79677;SDS011;69145;45.544;10.214;2023-05-13T00:58:50;3.10;;;1.60;;
79677;SDS011;69145;45.544;10.214;2023-05-13T01:01:19;3.60;;;1.52;;
79677;SDS011;69145;45.544;10.214;2023-05-13T01:09:50;3.80;;;1.25;;
79677;SDS011;69145;45.544;10.214;2023-05-13T01:12:20;2.60;;;1.00;;
79677;SDS011;69145;45.544;10.214;2023-05-13T01:14:51;3.00;;;1.33;;
79677;SDS011;69145;45.544;10.214;2023-05-13T01:17:23;2.40;;;1.00;;
79677;SDS011;69145;45.544;10.214;2023-05-13T01:19:56;3.97;;;1.00;;
79677;SDS011;69145;45.544;10.214;2023-05-13T01:22:24;3.05;;;1.13;;
79677;SDS011;69145;45.544;10.214;2023-05-13T01:24:49;3.15;;;1.00;;
79677;SDS011;69145;45.544;10.214;2023-05-13T01:27:15;2.70;;;1.15;;
79677;SDS011;69145;45.544;10.214;2023-05-13T01:29:41;3.75;;;1.30;;
79677;SDS011;69145;45.544;10.214;2023-05-13T01:32:08;2.72;;;1.10;;
79677;SDS011;69145;45.544;10.214;2023-05-13T01:34:34;3.45;;;1.17;;
79677;SDS011;69145;45.544;10.214;2023-05-13T01:37:00;3.50;;;1.00;;
79677;SDS011;69145;45.544;10.214;2023-05-13T01:39:27;2.65;;;1.00;;
79677;SDS011;69145;45.544;10.214;2023-05-13T01:41:54;3.28;;;1.23;;
79677;SDS011;69145;45.544;10.214;2023-05-13T01:44:19;2.88;;;1.02;;
79677;SDS011;69145;45.544;10.214;2023-05-13T01:46:45;3.08;;;1.13;;
79677;SDS011;69145;45.544;10.214;2023-05-13T01:49:11;2.72;;;1.10;;
79677;SDS011;69145;45.544;10.214;2023-05-13T01:51:36;2.90;;;1.00;;
79677;SDS011;69145;45.544;10.214;2023-05-13T01:54:03;4.22;;;1.30;;
79677;SDS011;69145;45.544;10.214;2023-05-13T01:56:28;3.30;;;1.27;;
79677;SDS011;69145;45.544;10.214;2023-05-13T01:58:54;2.95;;;1.38;;
79677;SDS011;69145;45.544;10.214;2023-05-13T02:01:19;2.35;;;1.10;;
79677;SDS011;69145;45.544;10.214;2023-05-13T02:03:45;3.55;;;1.00;;
79677;SDS011;69145;45.544;10.214;2023-05-13T02:06:10;3.83;;;1.33;;
79677;SDS011;69145;45.544;10.214;2023-05-13T02:08:35;4.10;;;1.00;;
79677;SDS011;69145;45.544;10.214;2023-05-13T02:11:01;4.60;;;1.27;;
79677;SDS011;69145;45.544;10.214;2023-05-13T02:13:26;2.50;;;1.00;;
79677;SDS011;69145;45.544;10.214;2023-05-13T02:15:52;2.72;;;1.00;;
79677;SDS011;69145;45.544;10.214;2023-05-13T02:18:18;3.35;;;1.08;;
79677;SDS011;69145;45.544;10.214;2023-05-13T02:20:43;3.08;;;1.00;;
79677;SDS011;69145;45.544;10.214;2023-05-13T02:23:09;2.83;;;1.10;;
79677;SDS011;69145;45.544;10.214;2023-05-13T02:25:35;2.30;;;0.70;;
79677;SDS011;69145;45.544;10.214;2023-05-13T02:28:00;4.45;;;1.02;;
79677;SDS011;69145;45.544;10.214;2023-05-13T02:30:26;3.33;;;0.90;;
79677;SDS011;69145;45.544;10.214;2023-05-13T02:32:51;2.17;;;0.77;;
79677;SDS011;69145;45.544;10.214;2023-05-13T02:37:46;3.00;;;1.10;;
79677;SDS011;69145;45.544;10.214;2023-05-13T02:40:12;2.95;;;0.82;;
79677;SDS011;69145;45.544;10.214;2023-05-13T02:42:37;3.28;;;1.15;;
79677;SDS011;69145;45.544;10.214;2023-05-13T02:45:03;2.53;;;0.80;;
79677;SDS011;69145;45.544;10.214;2023-05-13T02:47:28;3.15;;;1.02;;
79677;SDS011;69145;45.544;10.214;2023-05-13T02:49:55;2.88;;;0.82;;
79677;SDS011;69145;45.544;10.214;2023-05-13T02:52:20;3.40;;;1.23;;
79677;SDS011;69145;45.544;10.214;2023-05-13T02:54:46;2.60;;;0.82;;
79677;SDS011;69145;45.544;10.214;2023-05-13T02:57:11;2.10;;;0.80;;
79677;SDS011;69145;45.544;10.214;2023-05-13T02:59:36;2.63;;;0.87;;
79677;SDS011;69145;45.544;10.214;2023-05-13T03:02:02;4.43;;;0.90;;
79677;SDS011;69145;45.544;10.214;2023-05-13T03:04:27;3.28;;;1.17;;
79677;SDS011;69145;45.544;10.214;2023-05-13T03:06:52;2.90;;;0.90;;
79677;SDS011;69145;45.544;10.214;2023-05-13T03:09:18;4.25;;;0.73;;
79677;SDS011;69145;45.544;10.214;2023-05-13T03:11:43;3.03;;;0.90;;
79677;SDS011;69145;45.544;10.214;2023-05-13T03:14:09;2.05;;;0.65;;
79677;SDS011;69145;45.544;10.214;2023-05-13T03:16:34;2.53;;;0.82;;
79677;SDS011;69145;45.544;10.214;2023-05-13T03:18:59;3.17;;;0.90;;
79677;SDS011;69145;45.544;10.214;2023-05-13T03:21:25;2.83;;;1.02;;
79677;SDS011;69145;45.544;10.214;2023-05-13T03:23:50;2.60;;;1.17;;
79677;SDS011;69145;45.544;10.214;2023-05-13T03:26:15;2.03;;;0.73;;
79677;SDS011;69145;45.544;10.214;2023-05-13T03:28:41;4.03;;;0.77;;
79677;SDS011;69145;45.544;10.214;2023-05-13T03:31:06;2.27;;;1.00;;
79677;SDS011;69145;45.544;10.214;2023-05-13T03:33:31;2.35;;;0.77;;
79677;SDS011;69145;45.544;10.214;2023-05-13T03:35:57;2.30;;;1.00;;
79677;SDS011;69145;45.544;10.214;2023-05-13T03:38:22;2.92;;;0.75;;
79677;SDS011;69145;45.544;10.214;2023-05-13T03:40:48;2.67;;;0.73;;
79677;SDS011;69145;45.544;10.214;2023-05-13T03:43:13;2.95;;;0.90;;
79677;SDS011;69145;45.544;10.214;2023-05-13T03:45:38;2.40;;;0.93;;
79677;SDS011;69145;45.544;10.214;2023-05-13T03:48:04;2.07;;;0.70;;
79677;SDS011;69145;45.544;10.214;2023-05-13T03:50:29;2.13;;;0.65;;
79677;SDS011;69145;45.544;10.214;2023-05-13T03:52:55;2.22;;;0.73;;
79677;SDS011;69145;45.544;10.214;2023-05-13T03:55:20;2.28;;;0.80;;
79677;SDS011;69145;45.544;10.214;2023-05-13T03:57:47;2.10;;;0.70;;
79677;SDS011;69145;45.544;10.214;2023-05-13T04:00:13;2.42;;;0.70;;
79677;SDS011;69145;45.544;10.214;2023-05-13T04:02:39;2.45;;;0.50;;
79677;SDS011;69145;45.544;10.214;2023-05-13T04:05:04;2.20;;;0.60;;
79677;SDS011;69145;45.544;10.214;2023-05-13T04:07:30;2.70;;;0.70;;
79677;SDS011;69145;45.544;10.214;2023-05-13T04:09:55;2.78;;;0.55;;
79677;SDS011;69145;45.544;10.214;2023-05-13T04:12:21;2.50;;;0.87;;
79677;SDS011;69145;45.544;10.214;2023-05-13T04:14:46;1.85;;;0.57;;
79677;SDS011;69145;45.544;10.214;2023-05-13T04:17:11;3.37;;;1.33;;
79677;SDS011;69145;45.544;10.214;2023-05-13T04:19:37;2.92;;;0.88;;
79677;SDS011;69145;45.544;10.214;2023-05-13T04:22:02;2.30;;;0.50;;
79677;SDS011;69145;45.544;10.214;2023-05-13T04:24:30;3.15;;;0.85;;
79677;SDS011;69145;45.544;10.214;2023-05-13T04:26:59;3.10;;;0.70;;
79677;SDS011;69145;45.544;10.214;2023-05-13T04:29:24;2.60;;;0.50;;
79677;SDS011;69145;45.544;10.214;2023-05-13T04:31:50;3.33;;;0.93;;
79677;SDS011;69145;45.544;10.214;2023-05-13T04:34:15;2.77;;;0.40;;
79677;SDS011;69145;45.544;10.214;2023-05-13T04:36:40;3.00;;;0.60;;
79677;SDS011;69145;45.544;10.214;2023-05-13T04:39:06;2.67;;;0.97;;
79677;SDS011;69145;45.544;10.214;2023-05-13T04:41:31;1.77;;;0.53;;
79677;SDS011;69145;45.544;10.214;2023-05-13T04:43:56;2.30;;;0.57;;
79677;SDS011;69145;45.544;10.214;2023-05-13T04:46:22;2.78;;;0.68;;
79677;SDS011;69145;45.544;10.214;2023-05-13T04:48:47;6.97;;;1.13;;
79677;SDS011;69145;45.544;10.214;2023-05-13T04:51:15;4.33;;;0.97;;
79677;SDS011;69145;45.544;10.214;2023-05-13T04:53:41;6.38;;;0.93;;
79677;SDS011;69145;45.544;10.214;2023-05-13T04:56:07;2.70;;;0.67;;
79677;SDS011;69145;45.544;10.214;2023-05-13T04:58:32;3.35;;;0.77;;
79677;SDS011;69145;45.544;10.214;2023-05-13T05:00:58;2.47;;;0.55;;
79677;SDS011;69145;45.544;10.214;2023-05-13T05:03:23;2.03;;;0.53;;
79677;SDS011;69145;45.544;10.214;2023-05-13T05:05:51;2.70;;;0.60;;
79677;SDS011;69145;45.544;10.214;2023-05-13T05:08:16;2.72;;;0.73;;
79677;SDS011;69145;45.544;10.214;2023-05-13T05:10:42;2.93;;;0.80;;
79677;SDS011;69145;45.544;10.214;2023-05-13T05:13:08;4.03;;;0.47;;
79677;SDS011;69145;45.544;10.214;2023-05-13T05:15:33;2.63;;;0.52;;
79677;SDS011;69145;45.544;10.214;2023-05-13T05:17:58;3.72;;;0.52;;
79677;SDS011;69145;45.544;10.214;2023-05-13T05:20:27;2.80;;;0.57;;
79677;SDS011;69145;45.544;10.214;2023-05-13T05:22:52;2.25;;;0.70;;
79677;SDS011;69145;45.544;10.214;2023-05-13T05:25:18;1.90;;;0.63;;
79677;SDS011;69145;45.544;10.214;2023-05-13T05:27:45;2.88;;;0.85;;
79677;SDS011;69145;45.544;10.214;2023-05-13T05:30:11;2.20;;;0.50;;
79677;SDS011;69145;45.544;10.214;2023-05-13T05:32:42;4.70;;;0.88;;
79677;SDS011;69145;45.544;10.214;2023-05-13T05:35:08;1.88;;;0.73;;
79677;SDS011;69145;45.544;10.214;2023-05-13T05:37:37;3.58;;;0.80;;
79677;SDS011;69145;45.544;10.214;2023-05-13T05:40:02;3.60;;;0.80;;
79677;SDS011;69145;45.544;10.214;2023-05-13T05:42:30;2.50;;;0.73;;
79677;SDS011;69145;45.544;10.214;2023-05-13T05:44:59;2.97;;;0.73;;
79677;SDS011;69145;45.544;10.214;2023-05-13T05:47:24;3.17;;;1.10;;
79677;SDS011;69145;45.544;10.214;2023-05-13T05:50:11;2.22;;;0.70;;
79677;SDS011;69145;45.544;10.214;2023-05-13T05:52:37;3.40;;;1.00;;
79677;SDS011;69145;45.544;10.214;2023-05-13T05:55:02;2.40;;;0.98;;
79677;SDS011;69145;45.544;10.214;2023-05-13T05:57:30;2.58;;;0.98;;
79677;SDS011;69145;45.544;10.214;2023-05-13T06:00:01;4.85;;;1.10;;
79677;SDS011;69145;45.544;10.214;2023-05-13T06:02:31;3.60;;;0.90;;
79677;SDS011;69145;45.544;10.214;2023-05-13T06:04:56;4.18;;;1.25;;
79677;SDS011;69145;45.544;10.214;2023-05-13T06:07:23;4.60;;;1.33;;
79677;SDS011;69145;45.544;10.214;2023-05-13T06:09:51;2.92;;;1.08;;
79677;SDS011;69145;45.544;10.214;2023-05-13T06:12:17;4.05;;;1.25;;
79677;SDS011;69145;45.544;10.214;2023-05-13T06:14:45;4.93;;;1.35;;
79677;SDS011;69145;45.544;10.214;2023-05-13T06:17:14;3.03;;;1.45;;
79677;SDS011;69145;45.544;10.214;2023-05-13T06:19:40;3.00;;;1.10;;
79677;SDS011;69145;45.544;10.214;2023-05-13T06:22:09;5.53;;;1.27;;
79677;SDS011;69145;45.544;10.214;2023-05-13T06:24:35;3.20;;;1.58;;
79677;SDS011;69145;45.544;10.214;2023-05-13T06:27:01;4.30;;;2.00;;
79677;SDS011;69145;45.544;10.214;2023-05-13T06:29:27;3.58;;;1.60;;
79677;SDS011;69145;45.544;10.214;2023-05-13T06:31:52;3.25;;;1.55;;
79677;SDS011;69145;45.544;10.214;2023-05-13T06:34:20;3.30;;;1.33;;
79677;SDS011;69145;45.544;10.214;2023-05-13T06:36:45;2.92;;;1.20;;
79677;SDS011;69145;45.544;10.214;2023-05-13T06:39:11;4.10;;;1.38;;
79677;SDS011;69145;45.544;10.214;2023-05-13T06:41:37;3.35;;;1.42;;
79677;SDS011;69145;45.544;10.214;2023-05-13T06:44:04;4.78;;;1.67;;
79677;SDS011;69145;45.544;10.214;2023-05-13T06:46:32;3.15;;;1.42;;
79677;SDS011;69145;45.544;10.214;2023-05-13T06:48:58;3.13;;;1.30;;
79677;SDS011;69145;45.544;10.214;2023-05-13T06:51:24;4.32;;;1.67;;
79677;SDS011;69145;45.544;10.214;2023-05-13T06:53:53;4.00;;;1.40;;
79677;SDS011;69145;45.544;10.214;2023-05-13T06:56:19;5.57;;;1.45;;
79677;SDS011;69145;45.544;10.214;2023-05-13T06:58:47;4.35;;;1.50;;
79677;SDS011;69145;45.544;10.214;2023-05-13T07:01:13;3.03;;;1.20;;
79677;SDS011;69145;45.544;10.214;2023-05-13T07:03:40;4.50;;;1.63;;
79677;SDS011;69145;45.544;10.214;2023-05-13T07:06:23;2.80;;;1.33;;
79677;SDS011;69145;45.544;10.214;2023-05-13T07:08:48;3.28;;;1.30;;
79677;SDS011;69145;45.544;10.214;2023-05-13T07:11:13;3.88;;;1.50;;
79677;SDS011;69145;45.544;10.214;2023-05-13T07:13:39;4.18;;;1.35;;
79677;SDS011;69145;45.544;10.214;2023-05-13T07:16:04;3.00;;;1.40;;
79677;SDS011;69145;45.544;10.214;2023-05-13T07:18:30;3.88;;;1.42;;
79677;SDS011;69145;45.544;10.214;2023-05-13T07:20:55;3.83;;;1.33;;
79677;SDS011;69145;45.544;10.214;2023-05-13T07:23:23;2.88;;;1.48;;
79677;SDS011;69145;45.544;10.214;2023-05-13T07:25:49;2.87;;;1.37;;
79677;SDS011;69145;45.544;10.214;2023-05-13T07:28:16;3.83;;;1.98;;
79677;SDS011;69145;45.544;10.214;2023-05-13T07:30:43;4.50;;;1.63;;
79677;SDS011;69145;45.544;10.214;2023-05-13T07:33:09;3.72;;;1.45;;
79677;SDS011;69145;45.544;10.214;2023-05-13T07:35:34;3.85;;;1.50;;
79677;SDS011;69145;45.544;10.214;2023-05-13T07:38:00;4.43;;;2.20;;
79677;SDS011;69145;45.544;10.214;2023-05-13T07:40:25;5.30;;;2.17;;
79677;SDS011;69145;45.544;10.214;2023-05-13T07:42:50;4.97;;;2.10;;
79677;SDS011;69145;45.544;10.214;2023-05-13T07:45:15;3.50;;;1.70;;
79677;SDS011;69145;45.544;10.214;2023-05-13T07:47:41;3.53;;;1.90;;
79677;SDS011;69145;45.544;10.214;2023-05-13T07:50:06;4.70;;;1.90;;
79677;SDS011;69145;45.544;10.214;2023-05-13T07:52:32;4.18;;;1.67;;
79677;SDS011;69145;45.544;10.214;2023-05-13T07:55:01;4.80;;;2.08;;
79677;SDS011;69145;45.544;10.214;2023-05-13T07:57:26;3.38;;;1.70;;
79677;SDS011;69145;45.544;10.214;2023-05-13T07:59:52;5.25;;;2.33;;
79677;SDS011;69145;45.544;10.214;2023-05-13T08:02:18;4.15;;;2.10;;
79677;SDS011;69145;45.544;10.214;2023-05-13T08:04:43;3.72;;;2.05;;
79677;SDS011;69145;45.544;10.214;2023-05-13T08:07:09;4.53;;;1.88;;
79677;SDS011;69145;45.544;10.214;2023-05-13T08:09:35;5.53;;;2.95;;
79677;SDS011;69145;45.544;10.214;2023-05-13T08:12:01;4.95;;;2.13;;
79677;SDS011;69145;45.544;10.214;2023-05-13T08:14:26;5.55;;;2.35;;
79677;SDS011;69145;45.544;10.214;2023-05-13T08:16:52;6.53;;;2.55;;
79677;SDS011;69145;45.544;10.214;2023-05-13T08:19:18;5.28;;;2.10;;
79677;SDS011;69145;45.544;10.214;2023-05-13T08:21:43;4.80;;;2.08;;
79677;SDS011;69145;45.544;10.214;2023-05-13T08:24:09;4.70;;;2.75;;
79677;SDS011;69145;45.544;10.214;2023-05-13T08:26:35;4.35;;;2.10;;
79677;SDS011;69145;45.544;10.214;2023-05-13T08:29:01;3.67;;;2.38;;
79677;SDS011;69145;45.544;10.214;2023-05-13T08:31:26;5.20;;;2.28;;
79677;SDS011;69145;45.544;10.214;2023-05-13T08:33:52;4.85;;;2.40;;
79677;SDS011;69145;45.544;10.214;2023-05-13T08:36:18;7.75;;;2.50;;
79677;SDS011;69145;45.544;10.214;2023-05-13T08:38:44;14.02;;;2.85;;
79677;SDS011;69145;45.544;10.214;2023-05-13T08:41:13;7.70;;;3.25;;
79677;SDS011;69145;45.544;10.214;2023-05-13T08:43:39;6.28;;;3.00;;
79677;SDS011;69145;45.544;10.214;2023-05-13T08:46:10;8.57;;;2.83;;
79677;SDS011;69145;45.544;10.214;2023-05-13T08:48:37;10.85;;;3.00;;
79677;SDS011;69145;45.544;10.214;2023-05-13T08:53:33;5.85;;;2.70;;
79677;SDS011;69145;45.544;10.214;2023-05-13T08:55:59;5.97;;;2.65;;
79677;SDS011;69145;45.544;10.214;2023-05-13T08:58:25;6.40;;;2.78;;
79677;SDS011;69145;45.544;10.214;2023-05-13T09:00:51;9.82;;;3.15;;
79677;SDS011;69145;45.544;10.214;2023-05-13T09:03:18;7.78;;;2.90;;
79677;SDS011;69145;45.544;10.214;2023-05-13T09:05:45;14.07;;;3.40;;
79677;SDS011;69145;45.544;10.214;2023-05-13T09:08:10;15.35;;;3.45;;
79677;SDS011;69145;45.544;10.214;2023-05-13T09:10:39;15.63;;;3.22;;
79677;SDS011;69145;45.544;10.214;2023-05-13T09:13:08;13.43;;;4.15;;
79677;SDS011;69145;45.544;10.214;2023-05-13T09:15:35;6.35;;;3.38;;
79677;SDS011;69145;45.544;10.214;2023-05-13T09:18:02;11.02;;;3.83;;
79677;SDS011;69145;45.544;10.214;2023-05-13T09:20:29;9.88;;;3.35;;
79677;SDS011;69145;45.544;10.214;2023-05-13T09:23:00;11.35;;;3.40;;
79677;SDS011;69145;45.544;10.214;2023-05-13T09:25:37;12.40;;;3.60;;
79677;SDS011;69145;45.544;10.214;2023-05-13T09:28:04;13.52;;;4.63;;
79677;SDS011;69145;45.544;10.214;2023-05-13T09:30:35;8.52;;;4.43;;
79677;SDS011;69145;45.544;10.214;2023-05-13T09:35:41;7.90;;;3.50;;
79677;SDS011;69145;45.544;10.214;2023-05-13T09:38:11;11.32;;;3.72;;
79677;SDS011;69145;45.544;10.214;2023-05-13T09:40:40;8.35;;;3.20;;
79677;SDS011;69145;45.544;10.214;2023-05-13T09:43:11;6.00;;;3.10;;
79677;SDS011;69145;45.544;10.214;2023-05-13T09:45:39;10.30;;;4.18;;
79677;SDS011;69145;45.544;10.214;2023-05-13T09:48:05;6.50;;;3.65;;
79677;SDS011;69145;45.544;10.214;2023-05-13T09:50:32;8.02;;;3.08;;
79677;SDS011;69145;45.544;10.214;2023-05-13T09:52:58;7.22;;;3.92;;
79677;SDS011;69145;45.544;10.214;2023-05-13T09:55:34;9.45;;;3.22;;
79677;SDS011;69145;45.544;10.214;2023-05-13T09:58:00;5.60;;;3.47;;
79677;SDS011;69145;45.544;10.214;2023-05-13T10:00:26;9.30;;;3.67;;
79677;SDS011;69145;45.544;10.214;2023-05-13T10:02:51;7.32;;;3.83;;
79677;SDS011;69145;45.544;10.214;2023-05-13T10:05:17;5.82;;;3.88;;
79677;SDS011;69145;45.544;10.214;2023-05-13T10:07:42;5.40;;;3.67;;
79677;SDS011;69145;45.544;10.214;2023-05-13T10:10:08;7.25;;;3.33;;
79677;SDS011;69145;45.544;10.214;2023-05-13T10:12:34;5.28;;;2.80;;
79677;SDS011;69145;45.544;10.214;2023-05-13T10:15:04;6.75;;;3.55;;
79677;SDS011;69145;45.544;10.214;2023-05-13T10:17:31;8.40;;;4.25;;
79677;SDS011;69145;45.544;10.214;2023-05-13T10:19:56;8.00;;;3.50;;
79677;SDS011;69145;45.544;10.214;2023-05-13T10:22:29;6.07;;;3.33;;
79677;SDS011;69145;45.544;10.214;2023-05-13T10:24:56;6.03;;;2.80;;
79677;SDS011;69145;45.544;10.214;2023-05-13T10:27:27;4.78;;;3.30;;
79677;SDS011;69145;45.544;10.214;2023-05-13T10:29:54;5.35;;;3.55;;
79677;SDS011;69145;45.544;10.214;2023-05-13T10:32:24;6.45;;;3.22;;
79677;SDS011;69145;45.544;10.214;2023-05-13T10:34:58;4.65;;;3.20;;
79677;SDS011;69145;45.544;10.214;2023-05-13T10:42:42;5.07;;;3.00;;
79677;SDS011;69145;45.544;10.214;2023-05-13T10:45:15;4.88;;;2.72;;
79677;SDS011;69145;45.544;10.214;2023-05-13T10:47:41;4.53;;;3.20;;
79677;SDS011;69145;45.544;10.214;2023-05-13T10:50:20;4.03;;;2.65;;
79677;SDS011;69145;45.544;10.214;2023-05-13T10:52:47;4.32;;;2.92;;
79677;SDS011;69145;45.544;10.214;2023-05-13T10:55:14;5.28;;;3.05;;
79677;SDS011;69145;45.544;10.214;2023-05-13T10:57:41;5.03;;;3.75;;
79677;SDS011;69145;45.544;10.214;2023-05-13T11:00:29;4.85;;;3.63;;
79677;SDS011;69145;45.544;10.214;2023-05-13T11:03:07;5.05;;;3.47;;
79677;SDS011;69145;45.544;10.214;2023-05-13T11:05:42;5.20;;;2.88;;
79677;SDS011;69145;45.544;10.214;2023-05-13T11:08:11;4.75;;;3.40;;
79677;SDS011;69145;45.544;10.214;2023-05-13T11:10:56;5.78;;;3.60;;
79677;SDS011;69145;45.544;10.214;2023-05-13T11:13:21;6.72;;;4.22;;
79677;SDS011;69145;45.544;10.214;2023-05-13T11:15:49;4.78;;;3.50;;
79677;SDS011;69145;45.544;10.214;2023-05-13T11:18:16;5.35;;;3.80;;
79677;SDS011;69145;45.544;10.214;2023-05-13T11:20:51;4.60;;;3.40;;
79677;SDS011;69145;45.544;10.214;2023-05-13T11:23:21;4.32;;;3.03;;
79677;SDS011;69145;45.544;10.214;2023-05-13T11:26:08;4.05;;;2.95;;
79677;SDS011;69145;45.544;10.214;2023-05-13T11:28:58;4.75;;;3.00;;
79677;SDS011;69145;45.544;10.214;2023-05-13T11:31:28;4.90;;;3.22;;
79677;SDS011;69145;45.544;10.214;2023-05-13T11:34:13;5.78;;;3.50;;
79677;SDS011;69145;45.544;10.214;2023-05-13T11:36:43;5.03;;;3.10;;
79677;SDS011;69145;45.544;10.214;2023-05-13T11:39:16;4.80;;;3.85;;
79677;SDS011;69145;45.544;10.214;2023-05-13T11:41:48;5.15;;;3.60;;
79677;SDS011;69145;45.544;10.214;2023-05-13T11:44:18;5.00;;;3.00;;
79677;SDS011;69145;45.544;10.214;2023-05-13T11:46:49;4.63;;;2.97;;
79677;SDS011;69145;45.544;10.214;2023-05-13T11:49:37;5.95;;;3.15;;
79677;SDS011;69145;45.544;10.214;2023-05-13T11:52:19;5.05;;;2.58;;
79677;SDS011;69145;45.544;10.214;2023-05-13T11:54:51;4.85;;;2.33;;
79677;SDS011;69145;45.544;10.214;2023-05-13T11:57:20;5.68;;;2.42;;
79677;SDS011;69145;45.544;10.214;2023-05-13T12:00:01;5.18;;;2.83;;
79677;SDS011;69145;45.544;10.214;2023-05-13T12:02:32;4.70;;;2.20;;
79677;SDS011;69145;45.544;10.214;2023-05-13T12:05:07;4.80;;;2.83;;
79677;SDS011;69145;45.544;10.214;2023-05-13T12:07:34;4.35;;;2.50;;
79677;SDS011;69145;45.544;10.214;2023-05-13T12:10:02;5.63;;;2.50;;
79677;SDS011;69145;45.544;10.214;2023-05-13T12:12:29;4.10;;;2.40;;
79677;SDS011;69145;45.544;10.214;2023-05-13T12:15:03;3.50;;;2.17;;
79677;SDS011;69145;45.544;10.214;2023-05-13T12:17:31;4.43;;;2.20;;
79677;SDS011;69145;45.544;10.214;2023-05-13T12:30:51;4.07;;;2.20;;
79677;SDS011;69145;45.544;10.214;2023-05-13T12:33:22;4.00;;;2.00;;
79677;SDS011;69145;45.544;10.214;2023-05-13T12:35:50;6.72;;;2.25;;
79677;SDS011;69145;45.544;10.214;2023-05-13T12:38:38;3.90;;;1.80;;
79677;SDS011;69145;45.544;10.214;2023-05-13T12:41:10;4.32;;;1.92;;
79677;SDS011;69145;45.544;10.214;2023-05-13T12:43:39;3.80;;;1.90;;
79677;SDS011;69145;45.544;10.214;2023-05-13T12:46:05;3.42;;;1.98;;
79677;SDS011;69145;45.544;10.214;2023-05-13T12:48:33;3.90;;;1.80;;
79677;SDS011;69145;45.544;10.214;2023-05-13T12:50:59;3.92;;;2.03;;
79677;SDS011;69145;45.544;10.214;2023-05-13T12:53:24;3.92;;;1.60;;
79677;SDS011;69145;45.544;10.214;2023-05-13T12:55:50;4.60;;;1.90;;
79677;SDS011;69145;45.544;10.214;2023-05-13T12:58:15;3.25;;;1.30;;
79677;SDS011;69145;45.544;10.214;2023-05-13T13:00:46;4.30;;;1.50;;
79677;SDS011;69145;45.544;10.214;2023-05-13T13:03:11;3.20;;;1.48;;
79677;SDS011;69145;45.544;10.214;2023-05-13T13:05:37;3.10;;;1.40;;
79677;SDS011;69145;45.544;10.214;2023-05-13T13:08:06;3.58;;;1.38;;
79677;SDS011;69145;45.544;10.214;2023-05-13T13:10:31;4.00;;;1.40;;
79677;SDS011;69145;45.544;10.214;2023-05-13T13:12:57;5.00;;;1.67;;
79677;SDS011;69145;45.544;10.214;2023-05-13T13:15:25;3.47;;;1.40;;
79677;SDS011;69145;45.544;10.214;2023-05-13T13:17:51;3.70;;;1.38;;
79677;SDS011;69145;45.544;10.214;2023-05-13T13:20:18;3.58;;;1.30;;
79677;SDS011;69145;45.544;10.214;2023-05-13T13:22:44;2.90;;;1.20;;
79677;SDS011;69145;45.544;10.214;2023-05-13T13:25:12;3.28;;;1.25;;
79677;SDS011;69145;45.544;10.214;2023-05-13T13:27:37;6.43;;;1.27;;
79677;SDS011;69145;45.544;10.214;2023-05-13T13:30:03;2.40;;;1.07;;
79677;SDS011;69145;45.544;10.214;2023-05-13T13:32:29;2.78;;;1.08;;
79677;SDS011;69145;45.544;10.214;2023-05-13T13:34:54;4.15;;;1.40;;
79677;SDS011;69145;45.544;10.214;2023-05-13T13:37:21;3.05;;;1.08;;
79677;SDS011;69145;45.544;10.214;2023-05-13T13:39:47;3.67;;;1.20;;
79677;SDS011;69145;45.544;10.214;2023-05-13T13:42:12;2.67;;;1.20;;
79677;SDS011;69145;45.544;10.214;2023-05-13T13:44:37;2.78;;;0.77;;
79677;SDS011;69145;45.544;10.214;2023-05-13T13:47:03;2.47;;;0.80;;
79677;SDS011;69145;45.544;10.214;2023-05-13T13:49:29;4.30;;;1.17;;
79677;SDS011;69145;45.544;10.214;2023-05-13T13:51:54;3.00;;;0.97;;
79677;SDS011;69145;45.544;10.214;2023-05-13T13:54:20;3.25;;;0.90;;
79677;SDS011;69145;45.544;10.214;2023-05-13T13:56:46;3.08;;;0.90;;
79677;SDS011;69145;45.544;10.214;2023-05-13T13:59:12;3.10;;;0.90;;
79677;SDS011;69145;45.544;10.214;2023-05-13T14:01:37;2.77;;;0.60;;
79677;SDS011;69145;45.544;10.214;2023-05-13T14:04:10;2.90;;;0.73;;
79677;SDS011;69145;45.544;10.214;2023-05-13T14:06:37;3.15;;;0.60;;
79677;SDS011;69145;45.544;10.214;2023-05-13T14:09:03;3.70;;;0.90;;
79677;SDS011;69145;45.544;10.214;2023-05-13T14:11:35;3.53;;;0.73;;
79677;SDS011;69145;45.544;10.214;2023-05-13T14:14:00;2.85;;;1.08;;
79677;SDS011;69145;45.544;10.214;2023-05-13T14:16:32;2.35;;;0.70;;
79677;SDS011;69145;45.544;10.214;2023-05-13T14:19:00;2.45;;;0.77;;
79677;SDS011;69145;45.544;10.214;2023-05-13T14:21:32;3.05;;;0.95;;
79677;SDS011;69145;45.544;10.214;2023-05-13T14:23:57;2.25;;;0.52;;
79677;SDS011;69145;45.544;10.214;2023-05-13T14:26:36;2.20;;;0.88;;
79677;SDS011;69145;45.544;10.214;2023-05-13T14:29:02;2.20;;;0.80;;
79677;SDS011;69145;45.544;10.214;2023-05-13T14:31:27;3.28;;;0.82;;
79677;SDS011;69145;45.544;10.214;2023-05-13T14:33:53;2.70;;;1.05;;
79677;SDS011;69145;45.544;10.214;2023-05-13T14:36:19;2.55;;;0.80;;
79677;SDS011;69145;45.544;10.214;2023-05-13T14:38:46;3.05;;;0.70;;
79677;SDS011;69145;45.544;10.214;2023-05-13T14:41:15;3.00;;;0.82;;
79677;SDS011;69145;45.544;10.214;2023-05-13T14:43:44;2.58;;;0.90;;
79677;SDS011;69145;45.544;10.214;2023-05-13T14:46:15;2.97;;;1.08;;
79677;SDS011;69145;45.544;10.214;2023-05-13T14:48:40;2.88;;;0.85;;
79677;SDS011;69145;45.544;10.214;2023-05-13T14:51:06;4.07;;;0.80;;
79677;SDS011;69145;45.544;10.214;2023-05-13T14:53:33;3.20;;;0.70;;
79677;SDS011;69145;45.544;10.214;2023-05-13T14:55:59;4.25;;;1.00;;
79677;SDS011;69145;45.544;10.214;2023-05-13T14:58:27;3.55;;;1.30;;
79677;SDS011;69145;45.544;10.214;2023-05-13T15:00:53;4.03;;;1.50;;
79677;SDS011;69145;45.544;10.214;2023-05-13T15:03:22;4.82;;;1.17;;